Aérodrome :
LOGIN :

S'inscrire | Disclaimer

   EN    FR    IT 

 










Légende :    VFR   VFR Marginal   IFR   IFR Intensif   IFR Très Intensif
Visi : 
Plafond : 
>= 8 km
>= 3000ft
5 à 8 km
1000 à 3000 ft
1500m à 5 km
500 à 1000 ft
800 à 1500m
200 à 500 ft
< 800m
< 200 ft
Symboles :   Orages  Brouillard  Fortes neiges  Fortes précipitations  Vent > 20 kt
SIGMETs :   Divers  Orages  Givrage  Turbulence  Onde Orograph.  Cendres Volcan.






- Altitude de l'aérodrome : 614 ft
- Code IATA : CRL


EBCI - Charleroi

DERNIER METAR :
  • 111120Z 11005KT 060V170 CAVOK 30/18 Q1015 NOSIG

METARs EXPIRÉS :
  • 111050Z 11004KT 040V150 CAVOK 29/18 Q1015 NOSIG
  • 111020Z 10003KT 060V150 CAVOK 28/18 Q1015 NOSIG
  • 110950Z VRB02KT CAVOK 27/17 Q1015 NOSIG
  • 110920Z 10004KT 060V140 CAVOK 26/17 Q1015 NOSIG
  • 110850Z 07005KT 030V120 CAVOK 26/17 Q1015 NOSIG

TAF TAF EBCI
Valide du 11 à 12h jusqu'au 12 à 18h UTC


111110Z 1112/1218 04006KT CAVOK
PROB40
TEMPO 1212/1220 VRB18G35KT 3000 TSRA



MET'MAP, la Météo Aéronautique d'un coup d'oeil ! - Copyright ORBIFLY Décembre 2007 - Disclaimer

ORBIFLY MET'MAP TEAM :

Programmation & Développement : Alexandra Zaïnal
Sur une idée originale de : Baudouin d'Aumeries
Assistance à la programmation : Marc-Olivier Méhu
Soutien technique & logistique : Manuel Goepfert

Contact : metmap@orbifly.com




SOURCES & CREDITS :

   NOAA